Time;durP1;ratioP1;P1;durP2;ratioP2;P2;SDS_P1;SDS_P2;PMS_P1;PMS_P2;Temp;Humidity;BMP_temperature;BMP_pressure;BME280_temperature;BME280_humidity;BME280_pressure;Samples;Min_cycle;Max_cycle;Signal;HPM_P1;HPM_P2
2023/12/06 00:01:17;;;;;;;33.60;18.03;;;;;;;;;;5074232;28;20044;-27
2023/12/06 00:03:42;;;;;;;34.00;17.58;;;;;;;;;;5074138;28;20270;-27
2023/12/06 00:06:07;;;;;;;33.80;16.80;;;;;;;;;;5074810;28;20020;-27
2023/12/06 00:08:33;;;;;;;32.25;17.15;;;;;;;;;;5074133;28;20246;-27
2023/12/06 00:10:59;;;;;;;33.10;17.10;;;;;;;;;;5074087;28;20464;-27
2023/12/06 00:13:24;;;;;;;31.65;17.17;;;;;;;;;;5074383;28;20027;-27
2023/12/06 00:15:50;;;;;;;33.58;16.42;;;;;;;;;;5073968;28;20412;-27
2023/12/06 00:18:15;;;;;;;31.23;16.27;;;;;;;;;;5074031;28;20021;-27
2023/12/06 00:20:40;;;;;;;30.57;17.03;;;;;;;;;;5074578;28;20020;-27
2023/12/06 00:23:05;;;;;;;34.27;16.80;;;;;;;;;;5074034;28;20262;-27
2023/12/06 00:25:30;;;;;;;30.10;16.27;;;;;;;;;;5073715;28;20718;-27
2023/12/06 00:27:55;;;;;;;33.33;16.70;;;;;;;;;;5074251;28;20266;-27
2023/12/06 00:30:20;;;;;;;27.37;15.27;;;;;;;;;;5073748;28;20518;-27
2023/12/06 00:32:46;;;;;;;28.80;16.10;;;;;;;;;;5073744;28;20250;-27
2023/12/06 00:35:11;;;;;;;30.25;16.52;;;;;;;;;;5073958;28;20285;-27
2023/12/06 00:37:36;;;;;;;28.70;15.65;;;;;;;;;;5074230;28;20028;-27
2023/12/06 00:40:03;;;;;;;30.10;16.25;;;;;;;;;;5073844;28;20027;-27
2023/12/06 00:42:28;;;;;;;30.45;15.73;;;;;;;;;;5073658;28;20043;-27
2023/12/06 00:44:53;;;;;;;28.65;16.08;;;;;;;;;;5074061;28;20021;-27
2023/12/06 00:47:18;;;;;;;29.85;16.05;;;;;;;;;;5073938;28;20098;-27
2023/12/06 00:49:44;;;;;;;27.38;15.52;;;;;;;;;;5073588;28;20012;-27
2023/12/06 00:52:09;;;;;;;29.98;15.68;;;;;;;;;;5073818;28;20017;-27
2023/12/06 00:54:34;;;;;;;28.27;15.18;;;;;;;;;;5073827;28;20029;-27
2023/12/06 00:56:59;;;;;;;26.87;14.60;;;;;;;;;;5073299;28;20063;-27
2023/12/06 00:59:25;;;;;;;26.42;14.70;;;;;;;;;;5073611;28;20610;-27
2023/12/06 01:01:50;;;;;;;27.15;15.00;;;;;;;;;;5073424;28;20021;-27
2023/12/06 01:04:15;;;;;;;27.65;14.32;;;;;;;;;;5073344;28;20069;-27
2023/12/06 01:06:40;;;;;;;30.13;15.15;;;;;;;;;;5073230;28;20042;-27
2023/12/06 01:09:06;;;;;;;27.83;15.18;;;;;;;;;;5073391;28;20032;-27
2023/12/06 01:11:31;;;;;;;28.05;15.18;;;;;;;;;;5073522;28;20146;-27
2023/12/06 01:13:57;;;;;;;26.98;14.45;;;;;;;;;;5073312;28;20020;-27
2023/12/06 01:16:22;;;;;;;28.52;14.75;;;;;;;;;;5073150;28;20040;-27
2023/12/06 01:18:47;;;;;;;30.85;15.48;;;;;;;;;;5073305;28;20096;-27
2023/12/06 01:21:12;;;;;;;30.95;15.90;;;;;;;;;;5073244;28;20020;-27
2023/12/06 01:23:37;;;;;;;25.50;14.37;;;;;;;;;;5073195;28;20028;-27
2023/12/06 01:26:03;;;;;;;24.97;14.57;;;;;;;;;;5073143;28;20258;-27
2023/12/06 01:28:28;;;;;;;25.25;14.20;;;;;;;;;;5073735;28;20247;-27
2023/12/06 01:30:53;;;;;;;24.93;14.13;;;;;;;;;;5073157;28;20070;-27
2023/12/06 01:33:18;;;;;;;22.55;13.60;;;;;;;;;;5073092;28;20259;-27
2023/12/06 01:35:43;;;;;;;26.00;13.83;;;;;;;;;;5073122;28;20048;-27
2023/12/06 01:38:10;;;;;;;24.13;13.27;;;;;;;;;;5073092;28;20251;-27
2023/12/06 01:40:38;;;;;;;24.10;13.63;;;;;;;;;;5073604;28;20024;-27
2023/12/06 01:43:03;;;;;;;25.65;14.07;;;;;;;;;;5073027;28;20012;-27
2023/12/06 01:45:29;;;;;;;29.90;13.93;;;;;;;;;;5073007;28;20024;-27
2023/12/06 01:47:54;;;;;;;24.98;12.60;;;;;;;;;;5073027;28;20016;-27
2023/12/06 01:50:20;;;;;;;24.70;13.18;;;;;;;;;;5073589;28;20463;-27
2023/12/06 01:52:46;;;;;;;21.55;13.02;;;;;;;;;;5072958;28;20012;-27
2023/12/06 01:55:11;;;;;;;23.92;13.25;;;;;;;;;;5073215;28;20028;-27
2023/12/06 01:57:36;;;;;;;23.80;12.68;;;;;;;;;;5072891;28;20020;-27
2023/12/06 02:00:03;;;;;;;22.45;12.15;;;;;;;;;;5072676;28;20087;-27
2023/12/06 02:02:29;;;;;;;23.23;13.38;;;;;;;;;;5072785;28;20021;-27
2023/12/06 02:04:54;;;;;;;22.42;13.00;;;;;;;;;;5072744;28;20021;-28
2023/12/06 02:07:20;;;;;;;23.93;13.13;;;;;;;;;;5073032;28;20016;-27
2023/12/06 02:09:45;;;;;;;24.75;13.05;;;;;;;;;;5075078;28;20300;-28
2023/12/06 02:12:11;;;;;;;22.15;13.35;;;;;;;;;;5076363;28;20456;-27
2023/12/06 02:14:36;;;;;;;20.10;12.57;;;;;;;;;;5076364;28;20024;-27
2023/12/06 02:17:02;;;;;;;22.67;11.93;;;;;;;;;;5076381;28;20027;-27
2023/12/06 02:19:27;;;;;;;22.02;12.20;;;;;;;;;;5076337;28;20032;-27
2023/12/06 02:21:53;;;;;;;21.95;13.10;;;;;;;;;;5076573;28;20372;-27
2023/12/06 02:24:19;;;;;;;25.20;12.95;;;;;;;;;;5076138;28;20485;-27
2023/12/06 02:26:44;;;;;;;21.80;12.50;;;;;;;;;;5076215;28;20095;-27
2023/12/06 02:29:09;;;;;;;22.67;12.47;;;;;;;;;;5076235;28;20025;-27
2023/12/06 02:31:34;;;;;;;24.43;12.43;;;;;;;;;;5076155;28;20255;-27
2023/12/06 02:34:01;;;;;;;24.63;12.93;;;;;;;;;;5076112;28;20313;-27
2023/12/06 02:36:28;;;;;;;23.83;12.10;;;;;;;;;;5076080;28;20289;-27
2023/12/06 02:38:53;;;;;;;20.50;12.05;;;;;;;;;;5076883;28;20024;-27
2023/12/06 02:41:19;;;;;;;23.37;12.23;;;;;;;;;;5076553;28;20028;-27
2023/12/06 02:43:45;;;;;;;19.98;12.13;;;;;;;;;;5075811;28;20315;-27
2023/12/06 02:46:11;;;;;;;22.38;12.23;;;;;;;;;;5076109;28;20094;-27
2023/12/06 02:48:36;;;;;;;22.27;12.25;;;;;;;;;;5076388;28;20121;-27
2023/12/06 02:51:01;;;;;;;24.13;12.70;;;;;;;;;;5076410;28;20027;-27
2023/12/06 02:53:26;;;;;;;21.33;12.10;;;;;;;;;;5075752;28;20297;-27
2023/12/06 02:55:51;;;;;;;22.07;12.53;;;;;;;;;;5075674;28;20017;-27
2023/12/06 02:58:16;;;;;;;20.80;12.60;;;;;;;;;;5076111;28;20247;-27
2023/12/06 03:00:42;;;;;;;20.85;12.80;;;;;;;;;;5075324;28;20287;-27
2023/12/06 03:03:07;;;;;;;22.35;12.90;;;;;;;;;;5075699;28;20066;-27
2023/12/06 03:05:32;;;;;;;24.93;12.97;;;;;;;;;;5075331;28;20065;-27
2023/12/06 03:07:57;;;;;;;22.88;12.68;;;;;;;;;;5075087;28;20269;-27
2023/12/06 03:10:22;;;;;;;22.15;12.43;;;;;;;;;;5073949;28;20015;-27
2023/12/06 03:12:48;;;;;;;21.60;12.98;;;;;;;;;;5075263;28;20023;-27
2023/12/06 03:15:13;;;;;;;22.67;12.60;;;;;;;;;;5075337;28;20046;-27
2023/12/06 03:17:38;;;;;;;23.52;13.38;;;;;;;;;;5076108;28;20298;-27
2023/12/06 03:20:06;;;;;;;20.80;12.17;;;;;;;;;;5074769;28;20016;-27
2023/12/06 03:22:31;;;;;;;20.90;12.80;;;;;;;;;;5075127;28;20266;-27
2023/12/06 03:24:56;;;;;;;24.70;12.57;;;;;;;;;;5075683;28;20151;-27
2023/12/06 03:27:22;;;;;;;20.47;11.97;;;;;;;;;;5075053;28;20733;-27
2023/12/06 03:29:47;;;;;;;21.60;12.27;;;;;;;;;;5075509;28;20332;-27
2023/12/06 03:32:12;;;;;;;19.73;12.07;;;;;;;;;;5075261;28;20251;-27
2023/12/06 03:34:37;;;;;;;21.05;12.13;;;;;;;;;;5074933;28;20048;-27
2023/12/06 03:37:03;;;;;;;21.20;12.57;;;;;;;;;;5074866;28;20472;-27
2023/12/06 03:39:28;;;;;;;23.98;12.43;;;;;;;;;;5075078;28;20262;-27
2023/12/06 03:41:54;;;;;;;22.50;13.55;;;;;;;;;;5075026;28;20031;-26
2023/12/06 03:44:19;;;;;;;26.33;14.17;;;;;;;;;;5075198;28;20020;-26
2023/12/06 03:46:44;;;;;;;23.98;14.05;;;;;;;;;;5074628;28;20722;-26
2023/12/06 03:49:09;;;;;;;26.50;14.10;;;;;;;;;;5075215;28;20046;-26
2023/12/06 03:51:34;;;;;;;22.98;14.05;;;;;;;;;;5074529;28;20326;-26
2023/12/06 03:53:59;;;;;;;21.37;13.43;;;;;;;;;;5075096;28;20024;-26
2023/12/06 03:56:25;;;;;;;21.97;13.50;;;;;;;;;;5074435;28;20246;-26
2023/12/06 03:58:50;;;;;;;27.20;14.80;;;;;;;;;;5074608;28;20297;-26
2023/12/06 04:01:16;;;;;;;25.20;14.07;;;;;;;;;;5074177;28;20282;-26
2023/12/06 04:03:41;;;;;;;21.98;13.35;;;;;;;;;;5074761;28;20024;-26
2023/12/06 04:06:07;;;;;;;22.30;13.40;;;;;;;;;;5074520;28;20341;-26
2023/12/06 04:08:32;;;;;;;20.75;12.77;;;;;;;;;;5074459;28;20024;-26
2023/12/06 04:10:57;;;;;;;25.20;13.63;;;;;;;;;;5074196;28;20016;-26
2023/12/06 04:13:22;;;;;;;25.27;13.67;;;;;;;;;;5074407;28;20017;-26
2023/12/06 04:15:47;;;;;;;24.03;13.13;;;;;;;;;;5074095;28;20309;-26
2023/12/06 04:18:13;;;;;;;25.50;13.37;;;;;;;;;;5074079;28;20778;-26
2023/12/06 04:20:38;;;;;;;22.58;12.93;;;;;;;;;;5074278;28;20289;-26
2023/12/06 04:23:03;;;;;;;23.83;13.43;;;;;;;;;;5073961;28;20029;-26
2023/12/06 04:25:28;;;;;;;22.23;12.87;;;;;;;;;;5073929;28;20024;-27
2023/12/06 04:27:53;;;;;;;26.27;12.85;;;;;;;;;;5074385;28;20290;-26
2023/12/06 04:30:19;;;;;;;23.50;13.07;;;;;;;;;;5073879;28;20170;-27
2023/12/06 04:32:44;;;;;;;23.02;12.18;;;;;;;;;;5073157;28;20069;-26
2023/12/06 04:35:10;;;;;;;17.87;10.83;;;;;;;;;;5073835;28;20417;-26
2023/12/06 04:37:35;;;;;;;19.88;11.88;;;;;;;;;;5073783;28;20255;-26
2023/12/06 04:40:00;;;;;;;17.98;10.77;;;;;;;;;;5072432;28;20017;-26
2023/12/06 04:42:25;;;;;;;19.30;11.15;;;;;;;;;;5073716;28;20028;-27
2023/12/06 04:44:50;;;;;;;17.60;11.20;;;;;;;;;;5073581;28;20104;-26
2023/12/06 04:47:16;;;;;;;16.40;10.10;;;;;;;;;;5074198;28;20019;-26
2023/12/06 04:49:41;;;;;;;20.95;11.02;;;;;;;;;;5073628;28;20745;-26
2023/12/06 04:52:06;;;;;;;17.77;9.95;;;;;;;;;;5073553;28;20103;-26
2023/12/06 04:54:31;;;;;;;19.50;10.53;;;;;;;;;;5074093;28;20020;-26
2023/12/06 04:56:57;;;;;;;17.73;10.10;;;;;;;;;;5073524;28;20258;-26
2023/12/06 04:59:22;;;;;;;22.23;10.60;;;;;;;;;;5073387;28;20278;-26
2023/12/06 05:01:48;;;;;;;17.90;10.43;;;;;;;;;;5073638;28;20391;-26
2023/12/06 05:04:13;;;;;;;17.83;11.10;;;;;;;;;;5073622;28;20283;-26
2023/12/06 05:06:38;;;;;;;17.83;10.30;;;;;;;;;;5073393;28;20029;-26
2023/12/06 05:09:07;;;;;;;21.02;10.65;;;;;;;;;;5073395;28;20102;-26
2023/12/06 05:11:32;;;;;;;19.77;10.23;;;;;;;;;;5073543;28;20021;-27
2023/12/06 05:13:58;;;;;;;20.80;10.48;;;;;;;;;;5073646;28;20409;-26
2023/12/06 05:16:23;;;;;;;19.73;10.80;;;;;;;;;;5073347;28;20048;-27
2023/12/06 05:18:48;;;;;;;20.67;10.17;;;;;;;;;;5073939;28;20108;-27
2023/12/06 05:21:13;;;;;;;17.47;10.13;;;;;;;;;;5073802;28;20579;-26
2023/12/06 05:23:38;;;;;;;19.33;10.00;;;;;;;;;;5073431;28;20298;-26
2023/12/06 05:26:04;;;;;;;16.20;9.67;;;;;;;;;;5072002;28;20633;-26
2023/12/06 05:28:29;;;;;;;20.98;10.40;;;;;;;;;;5073444;28;20262;-26
2023/12/06 05:30:54;;;;;;;19.63;10.13;;;;;;;;;;5073669;28;20059;-26
2023/12/06 05:33:19;;;;;;;17.25;9.98;;;;;;;;;;5073106;28;20382;-27
2023/12/06 05:35:46;;;;;;;17.20;10.40;;;;;;;;;;5073705;28;20288;-26
2023/12/06 05:38:11;;;;;;;20.02;9.70;;;;;;;;;;5073336;28;20282;-27
2023/12/06 05:40:36;;;;;;;17.23;9.82;;;;;;;;;;5073037;28;20495;-30
2023/12/06 05:43:02;;;;;;;18.17;9.88;;;;;;;;;;5074501;28;20017;-27
2023/12/06 05:45:27;;;;;;;17.00;10.02;;;;;;;;;;5076910;28;20021;-27
2023/12/06 05:47:52;;;;;;;17.73;9.88;;;;;;;;;;5077533;28;20051;-26
2023/12/06 05:50:17;;;;;;;19.77;9.82;;;;;;;;;;5077203;28;20028;-27
2023/12/06 05:52:43;;;;;;;22.50;9.73;;;;;;;;;;5076802;28;20017;-27
2023/12/06 05:55:08;;;;;;;17.10;10.00;;;;;;;;;;5077325;28;20024;-26
2023/12/06 05:57:33;;;;;;;18.08;9.38;;;;;;;;;;5076734;28;20255;-26
2023/12/06 05:59:59;;;;;;;22.77;10.07;;;;;;;;;;5076507;28;20127;-27
2023/12/06 06:02:24;;;;;;;21.48;9.13;;;;;;;;;;5076629;28;20025;-27
2023/12/06 06:04:49;;;;;;;18.67;9.70;;;;;;;;;;5077094;28;20028;-26
2023/12/06 06:07:14;;;;;;;19.13;10.10;;;;;;;;;;5076901;28;20342;-27
2023/12/06 06:09:40;;;;;;;25.17;10.40;;;;;;;;;;5076807;28;20255;-26
2023/12/06 06:12:07;;;;;;;20.27;9.37;;;;;;;;;;5076414;28;20062;-26
2023/12/06 06:14:32;;;;;;;20.27;9.57;;;;;;;;;;5076709;28;20258;-27
2023/12/06 06:16:57;;;;;;;21.13;9.65;;;;;;;;;;5076381;28;20066;-27
2023/12/06 06:19:22;;;;;;;28.08;9.98;;;;;;;;;;5076664;28;20467;-27
2023/12/06 06:21:47;;;;;;;22.50;10.10;;;;;;;;;;5076979;28;20031;-27
2023/12/06 06:24:13;;;;;;;19.43;9.53;;;;;;;;;;5076254;28;20645;-27
2023/12/06 06:26:38;;;;;;;21.10;9.43;;;;;;;;;;5076318;28;20266;-27
2023/12/06 06:29:03;;;;;;;17.03;9.40;;;;;;;;;;5076484;28;20598;-27
2023/12/06 06:31:28;;;;;;;17.77;9.00;;;;;;;;;;5076695;28;20243;-27
2023/12/06 06:33:53;;;;;;;19.40;8.93;;;;;;;;;;5076412;28;20262;-27
2023/12/06 06:36:19;;;;;;;18.98;9.00;;;;;;;;;;5076633;28;20376;-27
2023/12/06 06:38:45;;;;;;;18.92;9.70;;;;;;;;;;5075992;28;20438;-27
2023/12/06 06:41:10;;;;;;;17.52;9.00;;;;;;;;;;5076243;28;20024;-27
2023/12/06 06:43:36;;;;;;;16.90;8.30;;;;;;;;;;5076185;28;20460;-27
2023/12/06 06:46:02;;;;;;;16.52;8.85;;;;;;;;;;5075912;28;20023;-27
2023/12/06 06:48:27;;;;;;;16.17;8.38;;;;;;;;;;5076047;28;20025;-27
2023/12/06 06:50:52;;;;;;;19.50;9.23;;;;;;;;;;5075805;28;20456;-27
2023/12/06 06:53:17;;;;;;;14.88;8.10;;;;;;;;;;5074515;28;20028;-27
2023/12/06 06:55:43;;;;;;;16.83;8.60;;;;;;;;;;5074903;28;20029;-27
2023/12/06 06:58:08;;;;;;;19.90;8.48;;;;;;;;;;5075890;28;20024;-27
2023/12/06 07:00:33;;;;;;;16.73;8.23;;;;;;;;;;5075124;28;20049;-27
2023/12/06 07:02:59;;;;;;;16.43;8.33;;;;;;;;;;5076144;28;20338;-27
2023/12/06 07:05:24;;;;;;;16.13;8.40;;;;;;;;;;5075310;28;20271;-27
2023/12/06 07:07:49;;;;;;;16.98;8.27;;;;;;;;;;5075520;28;20020;-27
2023/12/06 07:10:14;;;;;;;17.23;8.70;;;;;;;;;;5075366;28;20018;-27
2023/12/06 07:12:39;;;;;;;15.93;7.97;;;;;;;;;;5075376;28;20590;-27
2023/12/06 07:15:05;;;;;;;20.87;8.47;;;;;;;;;;5075395;28;20262;-27
2023/12/06 07:17:30;;;;;;;16.38;8.07;;;;;;;;;;5075416;28;20267;-27
2023/12/06 07:19:55;;;;;;;17.02;8.57;;;;;;;;;;5075561;28;20558;-27
2023/12/06 07:22:21;;;;;;;16.57;7.83;;;;;;;;;;5075204;28;20027;-27
2023/12/06 07:24:47;;;;;;;21.73;8.45;;;;;;;;;;5076146;28;20332;-27
2023/12/06 07:27:12;;;;;;;20.75;8.90;;;;;;;;;;5075056;28;20017;-27
2023/12/06 07:29:37;;;;;;;19.45;9.10;;;;;;;;;;5075644;28;20023;-27
2023/12/06 07:32:02;;;;;;;17.87;9.17;;;;;;;;;;5075595;28;20016;-27
2023/12/06 07:34:27;;;;;;;23.33;10.82;;;;;;;;;;5074948;28;20307;-27
2023/12/06 07:36:53;;;;;;;20.80;10.40;;;;;;;;;;5074858;28;20031;-27
2023/12/06 07:39:18;;;;;;;25.52;11.32;;;;;;;;;;5074823;28;20025;-27
2023/12/06 07:41:44;;;;;;;18.58;10.10;;;;;;;;;;5074761;28;20093;-27
2023/12/06 07:44:09;;;;;;;19.40;9.20;;;;;;;;;;5074560;28;20032;-27
2023/12/06 07:46:35;;;;;;;17.25;8.90;;;;;;;;;;5074669;28;20024;-32
2023/12/06 07:49:00;;;;;;;15.33;10.60;;;;;;;;;;5074850;28;20112;-27
2023/12/06 07:51:25;;;;;;;17.35;9.10;;;;;;;;;;5074738;28;20617;-27
2023/12/06 07:53:51;;;;;;;17.27;8.30;;;;;;;;;;5074557;28;20013;-27
2023/12/06 07:56:16;;;;;;;13.60;8.00;;;;;;;;;;5074404;28;20251;-27
2023/12/06 07:58:42;;;;;;;13.37;7.50;;;;;;;;;;5075162;28;20039;-27
2023/12/06 08:01:07;;;;;;;14.53;7.27;;;;;;;;;;5074301;28;20290;-27
2023/12/06 08:03:32;;;;;;;20.92;8.45;;;;;;;;;;5074253;28;20302;-27
2023/12/06 08:05:59;;;;;;;18.03;8.00;;;;;;;;;;5074936;28;20071;-27
2023/12/06 08:08:24;;;;;;;14.57;8.02;;;;;;;;;;5074456;28;20254;-27
2023/12/06 08:10:50;;;;;;;21.13;8.15;;;;;;;;;;5074101;28;20031;-27
2023/12/06 08:13:15;;;;;;;13.65;7.60;;;;;;;;;;5074384;28;20018;-27
2023/12/06 08:15:40;;;;;;;16.33;7.75;;;;;;;;;;5074162;28;20027;-27
2023/12/06 08:18:06;;;;;;;13.48;8.10;;;;;;;;;;5074372;28;20024;-27
2023/12/06 08:20:32;;;;;;;14.63;8.00;;;;;;;;;;5072770;28;20033;-27
2023/12/06 08:22:57;;;;;;;13.85;7.82;;;;;;;;;;5073959;28;20039;-27
2023/12/06 08:25:22;;;;;;;16.23;7.63;;;;;;;;;;5074127;28;20070;-27
2023/12/06 08:27:47;;;;;;;13.77;8.25;;;;;;;;;;5074219;28;20017;-27
2023/12/06 08:30:13;;;;;;;16.58;8.50;;;;;;;;;;5074400;28;20086;-27
2023/12/06 08:32:38;;;;;;;13.77;7.80;;;;;;;;;;5074382;28;20455;-27
2023/12/06 08:35:03;;;;;;;14.77;8.05;;;;;;;;;;5073779;28;20051;-27
2023/12/06 08:37:28;;;;;;;13.68;7.18;;;;;;;;;;5073819;28;20022;-27
2023/12/06 08:39:54;;;;;;;19.30;8.68;;;;;;;;;;5073679;28;20411;-27
2023/12/06 08:42:19;;;;;;;14.90;7.80;;;;;;;;;;5073769;28;20048;-27
2023/12/06 08:44:44;;;;;;;14.80;7.87;;;;;;;;;;5074195;28;20115;-27
2023/12/06 08:47:10;;;;;;;18.20;8.50;;;;;;;;;;5073709;28;20266;-27
2023/12/06 08:49:36;;;;;;;16.58;9.35;;;;;;;;;;5073540;28;20259;-27
2023/12/06 08:52:01;;;;;;;19.30;9.43;;;;;;;;;;5073863;28;20020;-27
2023/12/06 08:54:26;;;;;;;15.47;9.07;;;;;;;;;;5073399;28;20020;-27
2023/12/06 08:56:51;;;;;;;20.70;9.40;;;;;;;;;;5074039;28;20356;-27
2023/12/06 08:59:17;;;;;;;17.63;9.20;;;;;;;;;;5073298;28;20258;-29
2023/12/06 09:01:43;;;;;;;16.80;8.75;;;;;;;;;;5073596;28;20254;-27
2023/12/06 09:04:09;;;;;;;20.00;9.52;;;;;;;;;;5073786;28;20019;-27
2023/12/06 09:06:35;;;;;;;17.50;9.90;;;;;;;;;;5073246;28;20021;-27
2023/12/06 09:09:02;;;;;;;17.83;9.80;;;;;;;;;;5073327;28;20031;-27
2023/12/06 09:11:27;;;;;;;18.25;9.82;;;;;;;;;;5071982;28;20082;-27
2023/12/06 09:13:53;;;;;;;15.77;9.47;;;;;;;;;;5071258;28;20472;-27
2023/12/06 09:16:18;;;;;;;19.70;9.00;;;;;;;;;;5073230;28;20259;-27
2023/12/06 09:18:43;;;;;;;15.07;8.65;;;;;;;;;;5072653;28;20733;-27
2023/12/06 09:21:09;;;;;;;17.85;9.15;;;;;;;;;;5073490;28;20017;-27
2023/12/06 09:23:34;;;;;;;16.00;9.85;;;;;;;;;;5073397;28;20103;-27
2023/12/06 09:26:00;;;;;;;18.55;9.73;;;;;;;;;;5073295;28;20463;-27
2023/12/06 09:28:25;;;;;;;17.58;8.88;;;;;;;;;;5072900;28;20066;-27
2023/12/06 09:30:50;;;;;;;20.60;9.27;;;;;;;;;;5072628;28;20026;-27
2023/12/06 09:33:16;;;;;;;16.38;9.00;;;;;;;;;;5073303;28;20012;-27
2023/12/06 09:35:41;;;;;;;19.97;9.50;;;;;;;;;;5072976;28;20491;-27
2023/12/06 09:38:06;;;;;;;16.15;9.27;;;;;;;;;;5073002;28;20266;-27
2023/12/06 09:40:31;;;;;;;17.17;8.82;;;;;;;;;;5073304;28;20361;-27
2023/12/06 09:43:00;;;;;;;20.38;8.98;;;;;;;;;;5073171;28;20482;-27
2023/12/06 09:45:25;;;;;;;19.48;9.23;;;;;;;;;;5072786;28;20059;-27
2023/12/06 09:47:51;;;;;;;20.17;8.88;;;;;;;;;;5072837;28;20048;-29
2023/12/06 09:50:16;;;;;;;18.70;9.30;;;;;;;;;;5072797;28;20052;-27
2023/12/06 09:52:41;;;;;;;15.80;8.77;;;;;;;;;;5072475;28;20020;-27
2023/12/06 09:55:06;;;;;;;19.52;8.98;;;;;;;;;;5070860;28;20028;-27
2023/12/06 09:57:32;;;;;;;19.73;8.55;;;;;;;;;;5073302;28;20032;-27
2023/12/06 09:59:57;;;;;;;13.38;7.95;;;;;;;;;;5072142;28;20037;-27
2023/12/06 10:02:22;;;;;;;13.13;8.13;;;;;;;;;;5068683;28;20356;-28
2023/12/06 10:04:47;;;;;;;16.70;7.50;;;;;;;;;;5072615;28;20290;-27
2023/12/06 10:07:13;;;;;;;13.65;8.00;;;;;;;;;;5073167;28;20286;-27
2023/12/06 10:09:38;;;;;;;15.13;8.48;;;;;;;;;;5073249;28;20019;-27
2023/12/06 10:12:07;;;;;;;11.13;7.57;;;;;;;;;;5069737;28;20020;-28
2023/12/06 10:14:32;;;;;;;15.85;7.68;;;;;;;;;;5071119;28;20271;-27
2023/12/06 10:16:57;;;;;;;16.23;7.93;;;;;;;;;;5071193;28;20031;-27
2023/12/06 10:19:23;;;;;;;15.60;8.02;;;;;;;;;;5070805;28;20940;-28
2023/12/06 10:21:49;;;;;;;21.23;8.45;;;;;;;;;;5071152;28;20025;-27
2023/12/06 10:24:14;;;;;;;16.65;8.52;;;;;;;;;;5069778;28;20028;-27
2023/12/06 10:26:39;;;;;;;14.57;8.63;;;;;;;;;;5071290;28;20376;-27
2023/12/06 10:29:05;;;;;;;20.52;9.10;;;;;;;;;;5071904;28;20474;-27
2023/12/06 10:31:42;;;;;;;15.50;8.55;;;;;;;;;;5075230;28;20478;-27
2023/12/06 10:34:07;;;;;;;15.85;8.43;;;;;;;;;;5075184;28;20020;-27
2023/12/06 10:36:33;;;;;;;18.65;9.30;;;;;;;;;;5075057;28;20020;-27
2023/12/06 10:38:58;;;;;;;15.73;8.82;;;;;;;;;;5075398;28;20352;-27
2023/12/06 10:41:25;;;;;;;17.40;8.50;;;;;;;;;;5076480;28;20021;-27
2023/12/06 10:43:52;;;;;;;17.45;8.40;;;;;;;;;;5075918;28;20066;-27
2023/12/06 10:46:18;;;;;;;18.55;8.75;;;;;;;;;;5075858;28;20023;-27
2023/12/06 10:48:44;;;;;;;17.13;8.95;;;;;;;;;;5076388;28;20055;-28
2023/12/06 10:51:10;;;;;;;20.33;8.90;;;;;;;;;;5075758;28;20090;-27
2023/12/06 10:53:39;;;;;;;16.90;8.75;;;;;;;;;;5075952;28;20012;-27
2023/12/06 10:56:05;;;;;;;17.35;8.57;;;;;;;;;;5076085;28;20024;-27
2023/12/06 10:58:30;;;;;;;16.77;9.05;;;;;;;;;;5076514;28;20028;-27
2023/12/06 11:00:57;;;;;;;18.43;8.80;;;;;;;;;;5075488;28;20044;-27
2023/12/06 11:03:22;;;;;;;21.83;8.98;;;;;;;;;;5075594;28;20270;-27
2023/12/06 11:05:51;;;;;;;15.83;9.10;;;;;;;;;;5075695;28;20020;-27
2023/12/06 11:08:31;;;;;;;18.98;8.48;;;;;;;;;;5075336;28;20278;-28
2023/12/06 11:11:12;;;;;;;19.90;9.45;;;;;;;;;;5075474;28;20021;-27
2023/12/06 11:13:44;;;;;;;18.42;9.32;;;;;;;;;;5075255;28;20016;-27
2023/12/06 11:16:19;;;;;;;21.13;10.05;;;;;;;;;;5075533;28;20020;-27
2023/12/06 11:18:46;;;;;;;19.27;9.40;;;;;;;;;;5075814;28;20017;-27
2023/12/06 11:21:13;;;;;;;27.48;9.85;;;;;;;;;;5075115;28;20070;-27
2023/12/06 11:23:38;;;;;;;17.67;8.75;;;;;;;;;;5075340;28;20382;-27
2023/12/06 11:26:04;;;;;;;18.13;9.00;;;;;;;;;;5075041;28;20027;-27
2023/12/06 11:28:36;;;;;;;20.02;8.95;;;;;;;;;;5075645;28;20325;-27
2023/12/06 11:31:01;;;;;;;16.05;8.70;;;;;;;;;;5075051;28;20070;-27
2023/12/06 11:33:26;;;;;;;16.63;8.13;;;;;;;;;;5074874;28;20016;-27
2023/12/06 11:35:52;;;;;;;20.57;8.13;;;;;;;;;;5074745;28;20111;-27
2023/12/06 11:38:17;;;;;;;17.02;8.65;;;;;;;;;;5075080;28;20247;-27
2023/12/06 11:40:52;;;;;;;15.80;9.20;;;;;;;;;;5074616;28;20028;-27
2023/12/06 11:43:19;;;;;;;15.13;8.60;;;;;;;;;;5074871;28;20066;-27
2023/12/06 11:45:46;;;;;;;18.58;8.88;;;;;;;;;;5074434;28;20016;-27
2023/12/06 11:48:12;;;;;;;17.80;8.68;;;;;;;;;;5074636;28;20100;-27
2023/12/06 11:50:43;;;;;;;16.80;9.15;;;;;;;;;;5074479;28;20020;-27
2023/12/06 11:53:09;;;;;;;18.00;8.77;;;;;;;;;;5074470;28;20404;-27
2023/12/06 11:55:35;;;;;;;20.80;9.13;;;;;;;;;;5074509;28;20112;-27
2023/12/06 11:58:07;;;;;;;19.52;8.90;;;;;;;;;;5074346;28;20051;-26
2023/12/06 12:00:32;;;;;;;16.80;8.50;;;;;;;;;;5074100;28;20087;-26
2023/12/06 12:02:59;;;;;;;17.55;8.60;;;;;;;;;;5074060;28;20028;-26
2023/12/06 12:05:25;;;;;;;17.92;8.50;;;;;;;;;;5074325;28;20040;-27
2023/12/06 12:07:50;;;;;;;19.35;8.02;;;;;;;;;;5074156;28;20498;-27
2023/12/06 12:10:16;;;;;;;15.20;7.72;;;;;;;;;;5074048;28;20020;-27
2023/12/06 12:12:41;;;;;;;15.65;6.30;;;;;;;;;;5074661;28;20020;-27
2023/12/06 12:15:07;;;;;;;10.60;5.63;;;;;;;;;;5074166;28;20020;-27
2023/12/06 12:17:32;;;;;;;13.90;5.30;;;;;;;;;;5074545;28;20265;-27
2023/12/06 12:19:57;;;;;;;11.27;4.95;;;;;;;;;;5073907;28;20059;-27
2023/12/06 12:22:22;;;;;;;10.48;5.00;;;;;;;;;;5074464;28;20017;-27
2023/12/06 12:24:48;;;;;;;9.70;4.37;;;;;;;;;;5074341;28;20063;-27
2023/12/06 12:27:18;;;;;;;8.80;3.70;;;;;;;;;;5073791;28;20271;-27
2023/12/06 12:29:43;;;;;;;9.43;4.10;;;;;;;;;;5073984;28;20025;-27
2023/12/06 12:32:09;;;;;;;10.97;4.20;;;;;;;;;;5073707;28;20541;-27
2023/12/06 12:34:34;;;;;;;10.03;3.90;;;;;;;;;;5073887;28;20020;-27
2023/12/06 12:37:00;;;;;;;6.43;3.42;;;;;;;;;;5073682;28;20305;-27
2023/12/06 12:39:25;;;;;;;5.90;3.50;;;;;;;;;;5073799;28;20027;-27
2023/12/06 12:41:51;;;;;;;9.00;3.53;;;;;;;;;;5073514;28;20085;-27
2023/12/06 12:44:16;;;;;;;10.15;3.55;;;;;;;;;;5074005;28;20271;-27
2023/12/06 12:46:41;;;;;;;6.25;3.50;;;;;;;;;;5073556;28;20013;-27
2023/12/06 12:49:07;;;;;;;5.87;3.77;;;;;;;;;;5073545;28;20016;-27
2023/12/06 12:51:33;;;;;;;7.93;3.63;;;;;;;;;;5073556;28;20255;-27
2023/12/06 12:53:58;;;;;;;5.70;3.30;;;;;;;;;;5073422;28;20501;-27
2023/12/06 12:56:24;;;;;;;6.80;3.43;;;;;;;;;;5073616;28;20020;-27
2023/12/06 12:58:49;;;;;;;6.07;3.22;;;;;;;;;;5073276;28;20418;-27
2023/12/06 13:01:15;;;;;;;5.38;3.20;;;;;;;;;;5073054;28;20123;-27
2023/12/06 13:03:41;;;;;;;13.73;3.75;;;;;;;;;;5073142;28;20082;-27
2023/12/06 13:06:07;;;;;;;5.55;3.50;;;;;;;;;;5072784;28;20062;-27
2023/12/06 13:08:32;;;;;;;9.73;3.65;;;;;;;;;;5073176;28;20016;-27
2023/12/06 13:11:00;;;;;;;8.75;4.03;;;;;;;;;;5072874;28;20027;-27
2023/12/06 13:13:26;;;;;;;7.00;4.10;;;;;;;;;;5073349;28;20040;-27
2023/12/06 13:15:51;;;;;;;8.15;3.90;;;;;;;;;;5073859;28;20021;-27
2023/12/06 13:18:16;;;;;;;6.90;3.70;;;;;;;;;;5073208;28;20016;-28
2023/12/06 13:20:42;;;;;;;8.02;4.35;;;;;;;;;;5073098;28;20030;-26
2023/12/06 13:23:07;;;;;;;10.50;4.45;;;;;;;;;;5072698;28;20098;-27
2023/12/06 13:25:32;;;;;;;9.40;4.33;;;;;;;;;;5072711;28;20055;-26
2023/12/06 13:27:57;;;;;;;11.63;4.50;;;;;;;;;;5071940;28;20255;-26
2023/12/06 13:30:22;;;;;;;7.28;4.07;;;;;;;;;;5071531;28;20483;-27
2023/12/06 13:32:48;;;;;;;12.23;4.90;;;;;;;;;;5072818;28;20096;-26
2023/12/06 13:35:13;;;;;;;9.87;4.93;;;;;;;;;;5072702;28;20418;-26
2023/12/06 13:37:38;;;;;;;11.75;4.70;;;;;;;;;;5072853;28;20263;-27
2023/12/06 13:40:03;;;;;;;13.82;4.85;;;;;;;;;;5073006;28;20033;-27
2023/12/06 13:42:29;;;;;;;14.30;4.88;;;;;;;;;;5073054;28;20023;-27
2023/12/06 13:44:54;;;;;;;8.80;4.93;;;;;;;;;;5073066;28;20069;-27
2023/12/06 13:47:19;;;;;;;13.32;5.15;;;;;;;;;;5072909;28;20109;-26
2023/12/06 13:49:44;;;;;;;10.80;4.97;;;;;;;;;;5073507;28;20367;-27
2023/12/06 13:52:12;;;;;;;10.30;5.57;;;;;;;;;;5073143;28;20263;-26
2023/12/06 13:54:38;;;;;;;9.15;5.07;;;;;;;;;;5071865;28;20262;-26
2023/12/06 13:57:04;;;;;;;9.80;5.32;;;;;;;;;;5072545;28;20405;-27
2023/12/06 13:59:29;;;;;;;9.00;4.82;;;;;;;;;;5072014;28;20100;-27
2023/12/06 14:01:55;;;;;;;10.27;5.40;;;;;;;;;;5073470;28;20021;-27
2023/12/06 14:04:20;;;;;;;10.70;5.05;;;;;;;;;;5074694;28;20749;-27
2023/12/06 14:06:45;;;;;;;12.65;5.60;;;;;;;;;;5077005;28;20023;-26
2023/12/06 14:09:10;;;;;;;11.67;5.37;;;;;;;;;;5077083;28;20016;-26
2023/12/06 14:11:36;;;;;;;12.85;5.53;;;;;;;;;;5076597;28;20246;-26
2023/12/06 14:14:01;;;;;;;9.63;5.07;;;;;;;;;;5076667;28;20096;-26
2023/12/06 14:16:26;;;;;;;10.20;5.68;;;;;;;;;;5076457;28;20036;-26